createdAt,value
2023-05-19T00:02:15.040Z,4.70
2023-05-19T00:03:44.009Z,4.60
2023-05-19T00:05:12.999Z,4.90
2023-05-19T00:09:29.460Z,5.40
2023-05-19T00:11:27.936Z,5.10
2023-05-19T00:12:57.706Z,5.80
2023-05-19T00:15:59.439Z,5.20
2023-05-19T00:19:30.848Z,4.60
2023-05-19T00:21:29.186Z,5.10
2023-05-19T00:24:00.303Z,4.60
2023-05-19T00:28:20.595Z,5.30
2023-05-19T00:31:54.389Z,5.10
2023-05-19T00:33:23.236Z,5.20
2023-05-19T00:36:19.095Z,6.10
2023-05-19T00:38:22.734Z,5.20
2023-05-19T00:42:20.464Z,6.30
2023-05-19T00:50:36.543Z,5.40
2023-05-19T00:56:02.845Z,6.60
2023-05-19T00:57:34.663Z,5.60
2023-05-19T00:59:03.515Z,6.80
2023-05-19T01:00:32.661Z,6.00
2023-05-19T01:03:59.899Z,6.80
2023-05-19T01:05:31.553Z,6.40
2023-05-19T01:08:50.595Z,5.90
2023-05-19T01:12:28.765Z,6.20
2023-05-19T01:19:37.340Z,6.80
2023-05-19T01:24:34.972Z,7.00
2023-05-19T01:26:35.612Z,7.00
2023-05-19T01:28:08.481Z,6.70
2023-05-19T01:30:24.214Z,7.10
2023-05-19T01:33:52.470Z,7.00
2023-05-19T01:35:21.221Z,7.10
2023-05-19T01:37:51.707Z,7.40
2023-05-19T01:42:42.855Z,7.50
2023-05-19T01:44:43.570Z,7.60
2023-05-19T01:47:16.205Z,8.20
2023-05-19T01:52:10.949Z,8.20
2023-05-19T01:55:42.952Z,7.00
2023-05-19T02:00:08.255Z,6.90
2023-05-19T02:02:39.032Z,8.20
2023-05-19T02:03:38.959Z,8.30
2023-05-19T02:04:39.018Z,8.50
2023-05-19T02:05:38.920Z,8.40
2023-05-19T02:08:06.316Z,8.60
2023-05-19T02:11:34.503Z,8.00
2023-05-19T02:14:36.886Z,8.40
2023-05-19T02:23:10.805Z,8.00
2023-05-19T02:27:12.020Z,9.00
2023-05-19T02:28:43.916Z,8.50
2023-05-19T02:30:41.698Z,8.80
2023-05-19T02:32:14.583Z,8.00
2023-05-19T02:34:20.040Z,9.20
2023-05-19T02:36:46.984Z,8.70
2023-05-19T02:38:16.488Z,9.90
2023-05-19T02:40:46.358Z,8.20
2023-05-19T02:44:11.060Z,8.80
2023-05-19T02:45:40.377Z,9.20
2023-05-19T02:47:12.320Z,9.30
2023-05-19T02:49:13.207Z,8.90
2023-05-19T02:51:14.353Z,9.10
2023-05-19T02:56:49.492Z,9.80
2023-05-19T02:58:18.583Z,9.30
2023-05-19T03:00:51.662Z,10.00
2023-05-19T03:05:26.367Z,10.20
2023-05-19T03:07:53.585Z,10.50
2023-05-19T03:10:27.111Z,8.70
2023-05-19T03:13:43.537Z,10.10
2023-05-19T03:15:12.202Z,9.30
2023-05-19T03:17:13.191Z,8.90
2023-05-19T03:18:41.942Z,9.20
2023-05-19T03:20:41.571Z,9.50
2023-05-19T03:23:09.837Z,10.00
2023-05-19T03:24:38.849Z,9.70
2023-05-19T03:27:15.164Z,9.10
2023-05-19T03:32:58.897Z,9.50
2023-05-19T03:36:03.929Z,9.60
2023-05-19T03:37:32.870Z,9.40
2023-05-19T03:39:54.535Z,10.00
2023-05-19T03:42:44.587Z,10.10
2023-05-19T03:45:12.378Z,9.70
2023-05-19T03:47:09.844Z,9.50
2023-05-19T03:52:08.592Z,10.50
2023-05-19T03:53:18.455Z,9.70
2023-05-19T03:59:26.765Z,9.90
2023-05-19T04:00:59.426Z,9.20
2023-05-19T04:07:50.197Z,9.00
2023-05-19T04:09:26.533Z,9.70
2023-05-19T04:13:13.201Z,9.40
2023-05-19T04:15:14.284Z,9.50
2023-05-19T04:19:03.302Z,9.60
2023-05-19T04:26:22.331Z,9.00
2023-05-19T04:28:13.211Z,9.40
2023-05-19T04:29:21.802Z,9.60
2023-05-19T04:31:11.231Z,10.10
2023-05-19T04:32:40.490Z,9.20
2023-05-19T04:34:30.467Z,8.00
2023-05-19T04:35:59.497Z,9.50
2023-05-19T04:38:48.153Z,8.60
2023-05-19T04:40:37.910Z,9.60
2023-05-19T04:42:06.937Z,9.30
2023-05-19T04:43:35.873Z,9.10
2023-05-19T04:45:04.799Z,9.10
2023-05-19T04:46:34.761Z,8.50
2023-05-19T04:48:05.675Z,7.70
2023-05-19T04:50:05.609Z,8.80
2023-05-19T04:53:21.187Z,10.10
2023-05-19T04:56:30.086Z,7.90
2023-05-19T05:00:28.422Z,8.30
2023-05-19T05:02:56.300Z,7.70
2023-05-19T05:04:26.872Z,8.00
2023-05-19T05:06:25.103Z,7.50
2023-05-19T05:08:25.136Z,7.40
2023-05-19T05:12:16.483Z,7.60
2023-05-19T05:18:40.831Z,7.50
2023-05-19T05:21:14.119Z,8.30
2023-05-19T05:23:06.158Z,7.20
2023-05-19T05:24:59.505Z,7.30
2023-05-19T05:26:30.894Z,7.20
2023-05-19T05:28:17.179Z,8.10
2023-05-19T05:29:53.326Z,7.50
2023-05-19T05:31:50.569Z,7.20
2023-05-19T05:37:17.030Z,7.90
2023-05-19T05:39:41.365Z,7.30
2023-05-19T05:42:58.087Z,7.60
2023-05-19T05:44:31.796Z,7.10
2023-05-19T05:46:27.001Z,6.50
2023-05-19T05:48:27.441Z,6.80
2023-05-19T05:50:50.998Z,6.00
2023-05-19T05:57:13.890Z,6.80
2023-05-19T05:59:37.358Z,6.50
2023-05-19T06:04:20.063Z,6.90
2023-05-19T06:05:50.904Z,6.50
2023-05-19T06:10:11.108Z,6.00
2023-05-19T06:12:12.836Z,6.40
2023-05-19T06:15:06.886Z,6.60
2023-05-19T06:19:40.887Z,5.40
2023-05-19T06:26:27.576Z,5.60
2023-05-19T06:28:30.874Z,5.70
2023-05-19T06:30:29.891Z,6.20
2023-05-19T06:31:57.793Z,5.80
2023-05-19T06:33:30.290Z,5.90
2023-05-19T06:36:22.139Z,5.60
2023-05-19T06:37:51.942Z,5.60
2023-05-19T06:39:40.714Z,5.10
2023-05-19T06:41:30.411Z,4.90
2023-05-19T06:43:28.972Z,5.60
2023-05-19T06:44:57.945Z,4.80
2023-05-19T06:46:18.957Z,5.40
2023-05-19T06:47:18.915Z,5.00
2023-05-19T06:48:28.808Z,4.60
2023-05-19T06:49:57.776Z,5.10
2023-05-19T06:52:17.517Z,5.10
2023-05-19T06:56:00.358Z,4.80
2023-05-19T06:58:20.784Z,5.00
2023-05-19T06:59:52.692Z,4.80
2023-05-19T07:02:09.963Z,4.40
2023-05-19T07:05:27.521Z,4.50
2023-05-19T07:09:51.908Z,5.20
2023-05-19T07:15:25.389Z,5.70
2023-05-19T07:17:14.584Z,5.40
2023-05-19T07:21:15.414Z,4.60
2023-05-19T07:24:46.204Z,4.80
2023-05-19T07:26:44.214Z,4.60
2023-05-19T07:28:13.578Z,4.60
2023-05-19T07:32:10.790Z,4.30
2023-05-19T07:33:42.301Z,4.90
2023-05-19T07:36:14.923Z,4.30
2023-05-19T07:38:13.256Z,4.60
2023-05-19T07:41:09.820Z,4.60
2023-05-19T07:43:11.282Z,4.30
2023-05-19T07:45:08.157Z,4.30
2023-05-19T07:46:39.505Z,4.50
2023-05-19T07:48:11.784Z,4.20
2023-05-19T07:49:43.637Z,4.30
2023-05-19T07:51:15.916Z,4.50
2023-05-19T07:53:16.617Z,3.90
2023-05-19T07:54:45.320Z,5.40
2023-05-19T07:56:46.495Z,4.40
2023-05-19T07:59:16.650Z,4.10
2023-05-19T08:00:45.779Z,4.50
2023-05-19T08:03:12.641Z,3.70
2023-05-19T08:07:42.752Z,3.40
2023-05-19T08:13:54.822Z,3.10
2023-05-19T08:16:56.629Z,3.00
2023-05-19T08:18:28.400Z,3.10
2023-05-19T08:20:29.275Z,3.10
2023-05-19T08:22:29.952Z,3.40
2023-05-19T08:24:33.770Z,3.50
2023-05-19T08:27:06.577Z,3.60
2023-05-19T08:29:36.326Z,3.00
2023-05-19T08:33:06.638Z,3.10
2023-05-19T08:35:07.413Z,3.40
2023-05-19T08:37:05.640Z,3.00
2023-05-19T08:38:54.322Z,2.90
2023-05-19T08:42:15.929Z,3.30
2023-05-19T08:43:44.831Z,5.60
2023-05-19T08:47:15.377Z,3.40
2023-05-19T08:49:16.149Z,3.30
2023-05-19T08:52:12.761Z,3.10
2023-05-19T08:54:10.404Z,2.90
2023-05-19T08:58:14.124Z,2.40
2023-05-19T09:00:17.574Z,2.10
2023-05-19T09:03:46.164Z,2.30
2023-05-19T09:06:13.081Z,2.60
2023-05-19T09:09:09.803Z,2.40
2023-05-19T09:19:51.257Z,2.30
2023-05-19T09:21:23.180Z,2.90
2023-05-19T09:25:43.379Z,2.80
2023-05-19T09:28:42.406Z,2.50
2023-05-19T09:30:40.178Z,2.80
2023-05-19T09:33:10.308Z,3.20
2023-05-19T09:36:41.025Z,2.10
2023-05-19T09:45:50.273Z,2.40
2023-05-19T09:49:50.018Z,2.50
2023-05-19T09:51:47.775Z,5.10
2023-05-19T09:53:48.663Z,2.20
2023-05-19T09:58:52.150Z,2.30
2023-05-19T10:06:28.136Z,2.40
2023-05-19T10:07:57.540Z,2.00
2023-05-19T10:09:27.479Z,2.00
2023-05-19T10:12:19.948Z,2.10
2023-05-19T10:14:20.741Z,2.50
2023-05-19T10:18:23.736Z,2.20
2023-05-19T10:20:50.568Z,2.20
2023-05-19T10:24:31.613Z,2.30
2023-05-19T10:26:03.621Z,2.80
2023-05-19T10:32:53.709Z,1.90
2023-05-19T10:34:23.441Z,2.20
2023-05-19T10:39:51.352Z,2.30
2023-05-19T10:43:15.285Z,2.20
2023-05-19T10:44:46.173Z,2.90
2023-05-19T10:46:13.081Z,2.70
2023-05-19T10:47:44.926Z,2.40
2023-05-19T11:00:17.697Z,2.20
2023-05-19T11:06:22.834Z,2.20
2023-05-19T11:13:10.225Z,2.50
2023-05-19T11:17:15.830Z,2.00
2023-05-19T11:19:42.633Z,2.00
2023-05-19T11:25:58.880Z,2.00
2023-05-19T11:28:57.541Z,2.50
2023-05-19T11:31:59.901Z,2.70
2023-05-19T11:34:00.600Z,2.10
2023-05-19T11:37:34.156Z,2.40
2023-05-19T11:39:03.834Z,2.10
2023-05-19T11:41:30.224Z,2.20
2023-05-19T11:43:57.126Z,2.30
2023-05-19T11:44:57.084Z,2.40
2023-05-19T11:45:57.146Z,2.50
2023-05-19T11:46:57.149Z,2.30
2023-05-19T11:48:57.891Z,1.90
2023-05-19T11:50:26.757Z,2.30
2023-05-19T11:51:55.700Z,2.60
2023-05-19T11:53:56.906Z,2.10
2023-05-19T11:55:28.733Z,2.20
2023-05-19T12:00:55.354Z,2.40
2023-05-19T12:02:24.216Z,1.90
2023-05-19T12:03:53.441Z,2.60
2023-05-19T12:09:28.293Z,2.50
2023-05-19T12:11:29.349Z,2.50
2023-05-19T12:12:58.128Z,2.30
2023-05-19T12:14:26.996Z,2.50
2023-05-19T12:15:56.093Z,2.40
2023-05-19T12:17:56.987Z,2.10
2023-05-19T12:19:54.901Z,3.10
2023-05-19T12:21:57.138Z,2.50
2023-05-19T12:26:29.215Z,2.50
2023-05-19T12:30:29.325Z,2.80
2023-05-19T12:32:56.079Z,2.30
2023-05-19T12:34:24.882Z,2.30
2023-05-19T12:36:22.748Z,2.50
2023-05-19T12:40:28.412Z,3.10
2023-05-19T12:47:03.068Z,1.80
2023-05-19T12:53:04.096Z,2.50
2023-05-19T13:05:30.937Z,2.20
2023-05-19T13:09:02.165Z,2.10
2023-05-19T13:10:31.317Z,2.00
2023-05-19T13:12:32.202Z,2.40
2023-05-19T13:15:01.872Z,2.40
2023-05-19T13:16:59.814Z,2.10
2023-05-19T13:18:57.532Z,2.60
2023-05-19T13:21:56.269Z,2.10
2023-05-19T13:23:57.316Z,2.50
2023-05-19T13:25:26.055Z,2.40
2023-05-19T13:27:52.976Z,1.90
2023-05-19T13:29:51.192Z,1.90
2023-05-19T13:31:49.988Z,2.30
2023-05-19T13:34:16.657Z,2.50
2023-05-19T13:36:17.428Z,2.40
2023-05-19T13:39:35.866Z,1.90
2023-05-19T13:41:04.778Z,2.20
2023-05-19T13:44:52.173Z,2.20
2023-05-19T13:46:36.470Z,2.10
2023-05-19T13:51:22.698Z,1.80
2023-05-19T13:52:51.453Z,2.10
2023-05-19T13:58:45.978Z,1.90
2023-05-19T14:00:17.976Z,2.00
2023-05-19T14:01:49.947Z,2.00
2023-05-19T14:03:47.853Z,2.20
2023-05-19T14:08:54.721Z,2.20
2023-05-19T14:11:27.851Z,2.00
2023-05-19T14:13:33.787Z,1.50
2023-05-19T14:15:24.610Z,2.00
2023-05-19T14:18:52.969Z,2.10
2023-05-19T14:21:25.848Z,2.30
2023-05-19T14:24:53.775Z,2.20
2023-05-19T14:30:46.556Z,2.10
2023-05-19T14:45:55.547Z,1.70
2023-05-19T14:47:27.589Z,1.80
2023-05-19T14:53:31.593Z,1.60
2023-05-19T14:56:30.140Z,1.70
2023-05-19T14:59:05.888Z,2.30
2023-05-19T15:04:42.247Z,2.10
2023-05-19T15:11:12.465Z,2.10
2023-05-19T15:13:13.425Z,1.60
2023-05-19T15:20:13.753Z,1.90
2023-05-19T15:22:11.639Z,1.50
2023-05-19T15:24:09.377Z,1.90
2023-05-19T15:26:39.279Z,1.60
2023-05-19T15:30:41.761Z,1.90
2023-05-19T15:33:07.356Z,2.10
2023-05-19T15:35:05.345Z,2.00
2023-05-19T15:38:59.908Z,1.70
2023-05-19T15:43:03.601Z,1.80
2023-05-19T15:46:02.724Z,1.70
2023-05-19T15:48:03.657Z,1.60
2023-05-19T15:51:31.182Z,1.70
2023-05-19T15:53:00.457Z,1.90
2023-05-19T15:56:24.738Z,1.80
2023-05-19T15:58:25.691Z,2.50
2023-05-19T16:01:52.956Z,1.90
2023-05-19T16:03:20.639Z,1.90
2023-05-19T16:05:50.192Z,2.20
2023-05-19T16:07:48.044Z,1.90
2023-05-19T16:09:16.871Z,1.80
2023-05-19T16:11:17.706Z,1.70
2023-05-19T16:12:17.727Z,1.80
2023-05-19T16:13:17.683Z,1.70
2023-05-19T16:14:17.708Z,1.90
2023-05-19T16:15:49.529Z,1.80
2023-05-19T16:23:18.852Z,1.70
2023-05-19T16:24:47.665Z,1.80
2023-05-19T16:27:53.718Z,1.80
2023-05-19T16:29:22.684Z,2.30
2023-05-19T16:32:29.273Z,2.10
2023-05-19T16:34:30.758Z,2.90
2023-05-19T16:36:56.865Z,1.70
2023-05-19T16:39:32.439Z,2.30
2023-05-19T16:42:34.366Z,2.00
2023-05-19T16:44:35.160Z,1.60
2023-05-19T16:49:10.196Z,1.90
2023-05-19T16:54:44.268Z,1.70
2023-05-19T16:56:42.011Z,1.50
2023-05-19T16:58:41.039Z,1.70
2023-05-19T17:00:16.014Z,1.90
2023-05-19T17:03:14.739Z,1.50
2023-05-19T17:04:14.584Z,1.80
2023-05-19T17:05:14.603Z,1.80
2023-05-19T17:06:14.585Z,1.80
2023-05-19T17:08:15.312Z,1.70
2023-05-19T17:11:14.028Z,1.50
2023-05-19T17:14:30.552Z,1.60
2023-05-19T17:15:59.786Z,1.60
2023-05-19T17:19:24.976Z,1.40
2023-05-19T17:21:36.071Z,2.10
2023-05-19T17:26:08.324Z,1.60
2023-05-19T17:28:10.741Z,1.70
2023-05-19T17:29:42.662Z,1.70
2023-05-19T17:32:11.422Z,1.70
2023-05-19T17:34:32.246Z,2.10
2023-05-19T17:44:08.566Z,1.70
2023-05-19T17:46:57.253Z,1.70
2023-05-19T17:49:18.245Z,2.10
2023-05-19T17:51:19.608Z,2.10
2023-05-19T17:53:17.701Z,2.10
2023-05-19T17:56:51.601Z,2.60
2023-05-19T17:59:47.668Z,2.10
2023-05-19T18:03:47.754Z,1.90
2023-05-19T18:04:47.589Z,1.80
2023-05-19T18:05:47.647Z,2.00
2023-05-19T18:15:55.714Z,1.60
2023-05-19T18:17:26.746Z,1.60
2023-05-19T18:23:00.795Z,1.30
2023-05-19T18:25:58.394Z,1.80
2023-05-19T18:28:16.350Z,1.70
2023-05-19T18:30:15.882Z,1.70
2023-05-19T18:32:36.457Z,1.60
2023-05-19T18:36:56.017Z,1.40
2023-05-19T18:38:45.482Z,1.40
2023-05-19T18:42:39.364Z,1.80
2023-05-19T18:48:07.432Z,1.60
2023-05-19T18:53:35.303Z,2.00
2023-05-19T18:56:06.944Z,1.60
2023-05-19T18:57:54.246Z,1.50
2023-05-19T19:01:46.190Z,2.00
2023-05-19T19:06:23.710Z,1.90
2023-05-19T19:07:53.571Z,1.70
2023-05-19T19:13:25.737Z,1.90
2023-05-19T19:15:50.888Z,1.70
2023-05-19T19:18:21.073Z,1.70
2023-05-19T19:21:23.870Z,1.70
2023-05-19T19:23:21.870Z,1.80
2023-05-19T19:25:48.943Z,1.90
2023-05-19T19:27:49.804Z,2.00
2023-05-19T19:30:19.555Z,2.50
2023-05-19T19:31:49.561Z,2.50
2023-05-19T19:33:19.830Z,2.40
2023-05-19T19:37:18.176Z,2.60
2023-05-19T19:39:45.038Z,2.60
2023-05-19T19:42:47.874Z,2.20
2023-05-19T19:44:49.117Z,2.50
2023-05-19T19:49:27.335Z,2.50
2023-05-19T19:50:56.173Z,2.50
2023-05-19T19:52:54.049Z,1.90
2023-05-19T19:54:43.914Z,1.80
2023-05-19T19:55:51.804Z,2.30
2023-05-19T19:58:21.529Z,2.60
2023-05-19T20:01:48.161Z,2.10
2023-05-19T20:03:45.910Z,2.00
2023-05-19T20:06:18.496Z,1.80
2023-05-19T20:08:20.804Z,2.50
2023-05-19T20:17:49.910Z,1.80
2023-05-19T20:21:19.983Z,2.50
2023-05-19T20:25:32.735Z,2.00
2023-05-19T20:27:30.627Z,2.20
2023-05-19T20:29:31.455Z,2.10
2023-05-19T20:32:54.183Z,1.80
2023-05-19T20:34:21.355Z,1.80
2023-05-19T20:39:12.472Z,1.60
2023-05-19T20:40:41.150Z,1.80
2023-05-19T20:42:13.715Z,1.90
2023-05-19T20:46:00.968Z,2.20
2023-05-19T20:47:30.699Z,2.00
2023-05-19T20:50:00.414Z,2.10
2023-05-19T20:51:29.615Z,2.40
2023-05-19T21:02:34.110Z,2.50
2023-05-19T21:05:30.838Z,3.00
2023-05-19T21:07:28.913Z,3.10
2023-05-19T21:13:02.764Z,2.70
2023-05-19T21:14:34.517Z,2.80
2023-05-19T21:16:23.446Z,3.10
2023-05-19T21:19:36.513Z,2.90
2023-05-19T21:22:15.695Z,2.70
2023-05-19T21:32:18.582Z,2.50
2023-05-19T21:33:48.498Z,3.40
2023-05-19T21:37:08.117Z,3.20
2023-05-19T21:40:36.008Z,3.00
2023-05-19T21:44:38.628Z,3.40
2023-05-19T21:45:40.974Z,3.50
2023-05-19T21:46:36.654Z,2.90
2023-05-19T21:48:36.417Z,3.10
2023-05-19T21:50:36.250Z,3.40
2023-05-19T21:52:39.885Z,3.20
2023-05-19T21:56:18.049Z,3.30
2023-05-19T22:00:33.533Z,3.30
2023-05-19T22:02:32.620Z,3.00
2023-05-19T22:04:21.258Z,3.20
2023-05-19T22:10:01.594Z,3.60
2023-05-19T22:17:48.553Z,3.50
2023-05-19T22:22:19.910Z,2.90
2023-05-19T22:23:48.392Z,3.00
2023-05-19T22:25:21.230Z,2.50
2023-05-19T22:30:15.640Z,3.30
2023-05-19T22:31:49.441Z,3.30
2023-05-19T22:33:16.054Z,3.50
2023-05-19T22:35:35.040Z,3.00
2023-05-19T22:39:50.589Z,3.00
2023-05-19T22:41:18.788Z,3.20
2023-05-19T22:47:35.099Z,3.30
2023-05-19T22:53:21.230Z,3.30
2023-05-19T22:59:13.188Z,3.70
2023-05-19T23:02:55.832Z,3.40
2023-05-19T23:06:09.241Z,3.30
2023-05-19T23:07:36.339Z,3.50
2023-05-19T23:09:27.552Z,3.50
2023-05-19T23:14:13.660Z,3.20
2023-05-19T23:16:47.268Z,4.00
2023-05-19T23:19:46.000Z,3.40
2023-05-19T23:22:19.911Z,3.30
2023-05-19T23:30:51.278Z,3.40
2023-05-19T23:32:39.048Z,3.90
2023-05-19T23:34:29.933Z,3.40
2023-05-19T23:36:57.877Z,3.60
2023-05-19T23:41:17.864Z,3.80
2023-05-19T23:45:43.379Z,3.10
2023-05-19T23:51:59.440Z,3.40
2023-05-19T23:54:00.479Z,3.90
2023-05-19T23:55:30.540Z,3.50
2023-05-19T23:57:03.937Z,3.80
2023-05-19T23:58:31.894Z,3.80
